sensor_id;sensor_type;location;lat;lon;timestamp;pressure;altitude;pressure_sealevel;temperature;humidity
76046;BME280;64741;41.730;44.788;2024-03-02T00:05:00;1000.6;;;21.9;38
76046;BME280;64741;41.730;44.788;2024-03-02T00:10:00;1000.5;;;21.9;37.9
76046;BME280;64741;41.730;44.788;2024-03-02T00:14:56;1000.4;;;21.9;38
76046;BME280;64741;41.730;44.788;2024-03-02T00:19:48;1000.2;;;21.9;37.9
76046;BME280;64741;41.730;44.788;2024-03-02T00:25:00;1000.1;;;21.9;37.9
76046;BME280;64741;41.730;44.788;2024-03-02T00:30:00;1000.3;;;21.9;38
76046;BME280;64741;41.730;44.788;2024-03-02T00:34:50;1000.2;;;21.8;38
76046;BME280;64741;41.730;44.788;2024-03-02T00:39:48;1000.1;;;21.8;38
76046;BME280;64741;41.730;44.788;2024-03-02T00:45:00;1000;;;21.8;38
76046;BME280;64741;41.730;44.788;2024-03-02T00:50:00;1000;;;21.8;38
76046;BME280;64741;41.730;44.788;2024-03-02T00:54:57;1000.1;;;21.8;38
76046;BME280;64741;41.730;44.788;2024-03-02T01:00:00;1000;;;21.8;38
76046;BME280;64741;41.730;44.788;2024-03-02T01:04:56;1000;;;21.8;38
76046;BME280;64741;41.730;44.788;2024-03-02T01:09:56;1000;;;21.8;38
76046;BME280;64741;41.730;44.788;2024-03-02T01:14:54;1000;;;21.8;37.7
76046;BME280;64741;41.730;44.788;2024-03-02T01:19:56;1000.2;;;21.7;37.8
76046;BME280;64741;41.730;44.788;2024-03-02T01:24:56;1000;;;21.8;38.1
76046;BME280;64741;41.730;44.788;2024-03-02T01:29:48;1000;;;21.8;38.1
76046;BME280;64741;41.730;44.788;2024-03-02T01:35:00;999.9;;;21.8;38.1
76046;BME280;64741;41.730;44.788;2024-03-02T01:39:56;999.8;;;21.8;38.1
76046;BME280;64741;41.730;44.788;2024-03-02T01:45:00;999.7;;;21.8;38
76046;BME280;64741;41.730;44.788;2024-03-02T01:49:56;999.6;;;21.7;37.8
76046;BME280;64741;41.730;44.788;2024-03-02T01:55:00;999.5;;;21.7;37.9
76046;BME280;64741;41.730;44.788;2024-03-02T01:59:56;999.5;;;21.7;37.9
76046;BME280;64741;41.730;44.788;2024-03-02T02:04:58;999.5;;;21.7;38
76046;BME280;64741;41.730;44.788;2024-03-02T02:10:00;999.5;;;21.7;38
76046;BME280;64741;41.730;44.788;2024-03-02T02:14:36;999.4;;;21.7;37.8
76046;BME280;64741;41.730;44.788;2024-03-02T02:19:30;999.4;;;21.7;37.7
76046;BME280;64741;41.730;44.788;2024-03-02T02:24:32;999.2;;;21.7;37.6
76046;BME280;64741;41.730;44.788;2024-03-02T02:29:48;999.2;;;21.7;37.7
76046;BME280;64741;41.730;44.788;2024-03-02T02:35:00;999;;;21.7;37.8
76046;BME280;64741;41.730;44.788;2024-03-02T02:39:56;999;;;21.7;38
76046;BME280;64741;41.730;44.788;2024-03-02T02:44:56;999;;;21.7;37.7
76046;BME280;64741;41.730;44.788;2024-03-02T02:50:01;998.9;;;21.6;37.7
76046;BME280;64741;41.730;44.788;2024-03-02T02:54:56;998.9;;;21.7;37.7
76046;BME280;64741;41.730;44.788;2024-03-02T02:59:56;998.8;;;21.6;37.6
76046;BME280;64741;41.730;44.788;2024-03-02T03:04:30;998.9;;;21.6;37.6
76046;BME280;64741;41.730;44.788;2024-03-02T03:10:00;998.8;;;21.6;37.7
76046;BME280;64741;41.730;44.788;2024-03-02T03:14:53;998.8;;;21.7;37.9
76046;BME280;64741;41.730;44.788;2024-03-02T03:20:00;998.8;;;21.7;37.8
76046;BME280;64741;41.730;44.788;2024-03-02T03:24:58;998.8;;;21.7;37.8
76046;BME280;64741;41.730;44.788;2024-03-02T03:30:00;998.8;;;21.6;37.7
76046;BME280;64741;41.730;44.788;2024-03-02T03:34:56;998.7;;;21.6;37.6
76046;BME280;64741;41.730;44.788;2024-03-02T03:40:01;998.6;;;21.6;37.7
76046;BME280;64741;41.730;44.788;2024-03-02T03:45:00;998.5;;;21.6;37.7
76046;BME280;64741;41.730;44.788;2024-03-02T03:49:42;998.5;;;21.6;37.7
76046;BME280;64741;41.730;44.788;2024-03-02T03:55:03;998.5;;;21.6;37.7
76046;BME280;64741;41.730;44.788;2024-03-02T04:00:00;998.5;;;21.6;37.6
76046;BME280;64741;41.730;44.788;2024-03-02T04:04:56;998.6;;;21.6;37.6
76046;BME280;64741;41.730;44.788;2024-03-02T04:10:00;998.5;;;21.6;37.7
76046;BME280;64741;41.730;44.788;2024-03-02T04:14:52;998.5;;;21.6;37.7
76046;BME280;64741;41.730;44.788;2024-03-02T04:19:56;998.5;;;21.6;37.6
76046;BME280;64741;41.730;44.788;2024-03-02T04:25:01;998.4;;;21.6;37.5
76046;BME280;64741;41.730;44.788;2024-03-02T04:29:48;998.4;;;21.6;37.5
76046;BME280;64741;41.730;44.788;2024-03-02T04:35:00;998.4;;;21.5;37.4
76046;BME280;64741;41.730;44.788;2024-03-02T04:39:42;998.4;;;21.5;37.5
76046;BME280;64741;41.730;44.788;2024-03-02T04:44:48;998.4;;;21.5;37.4
76046;BME280;64741;41.730;44.788;2024-03-02T04:50:00;998.4;;;21.5;37.5
76046;BME280;64741;41.730;44.788;2024-03-02T04:54:50;998.3;;;21.5;37.6
76046;BME280;64741;41.730;44.788;2024-03-02T04:59:48;998.3;;;21.5;37.7
76046;BME280;64741;41.730;44.788;2024-03-02T05:05:01;998.4;;;21.5;37.7
76046;BME280;64741;41.730;44.788;2024-03-02T05:09:56;998.4;;;21.5;37.7
76046;BME280;64741;41.730;44.788;2024-03-02T05:14:57;998.4;;;21.5;37.8
76046;BME280;64741;41.730;44.788;2024-03-02T05:20:01;998.4;;;21.5;37.8
76046;BME280;64741;41.730;44.788;2024-03-02T05:24:49;998.4;;;21.5;37.8
76046;BME280;64741;41.730;44.788;2024-03-02T05:30:01;998.4;;;21.5;37.7
76046;BME280;64741;41.730;44.788;2024-03-02T05:34:49;998.4;;;21.5;37.7
76046;BME280;64741;41.730;44.788;2024-03-02T05:40:01;998.4;;;21.5;37.7
76046;BME280;64741;41.730;44.788;2024-03-02T05:44:57;998.4;;;21.5;37.6
76046;BME280;64741;41.730;44.788;2024-03-02T05:50:01;998.4;;;21.5;37.7
76046;BME280;64741;41.730;44.788;2024-03-02T05:54:59;998.4;;;21.5;37.7
76046;BME280;64741;41.730;44.788;2024-03-02T06:00:01;998.4;;;21.5;37.7
76046;BME280;64741;41.730;44.788;2024-03-02T06:04:59;998.4;;;21.5;37.7
76046;BME280;64741;41.730;44.788;2024-03-02T06:10:03;998.4;;;21.4;37.6
76046;BME280;64741;41.730;44.788;2024-03-02T06:15:03;998.4;;;21.4;37.4
76046;BME280;64741;41.730;44.788;2024-03-02T06:19:49;998.4;;;21.4;37.6
76046;BME280;64741;41.730;44.788;2024-03-02T06:25:04;998.4;;;21.4;37.5
76046;BME280;64741;41.730;44.788;2024-03-02T06:29:39;998.4;;;21.4;37.6
76046;BME280;64741;41.730;44.788;2024-03-02T06:34:59;998.4;;;21.4;37.6
76046;BME280;64741;41.730;44.788;2024-03-02T06:40:04;998.4;;;21.4;37.6
76046;BME280;64741;41.730;44.788;2024-03-02T06:45:03;998.4;;;21.4;37.6
76046;BME280;64741;41.730;44.788;2024-03-02T06:49:39;998.4;;;21.4;37.6
76046;BME280;64741;41.730;44.788;2024-03-02T06:54:31;998.4;;;21.4;37.6
76046;BME280;64741;41.730;44.788;2024-03-02T06:59:51;998.4;;;21.4;37.3
76046;BME280;64741;41.730;44.788;2024-03-02T07:05:03;998.4;;;21.4;37.3
76046;BME280;64741;41.730;44.788;2024-03-02T07:09:49;998.4;;;21.4;37.5
76046;BME280;64741;41.730;44.788;2024-03-02T07:15:03;998.4;;;21.4;37.7
76046;BME280;64741;41.730;44.788;2024-03-02T07:19:59;998.3;;;21.4;37.8
76046;BME280;64741;41.730;44.788;2024-03-02T07:25:03;998.3;;;21.5;38.1
76046;BME280;64741;41.730;44.788;2024-03-02T07:30:03;998.2;;;21.6;38
76046;BME280;64741;41.730;44.788;2024-03-02T07:35:03;998.2;;;21.6;38.1
76046;BME280;64741;41.730;44.788;2024-03-02T07:39:59;998.1;;;21.7;38.7
76046;BME280;64741;41.730;44.788;2024-03-02T07:45:01;998.1;;;21.7;39
76046;BME280;64741;41.730;44.788;2024-03-02T07:50:03;998.1;;;21.8;39.2
76046;BME280;64741;41.730;44.788;2024-03-02T07:54:51;998.1;;;21.8;39.4
76046;BME280;64741;41.730;44.788;2024-03-02T08:00:03;998.1;;;21.9;39.6
76046;BME280;64741;41.730;44.788;2024-03-02T08:04:51;998.1;;;21.9;39.5
76046;BME280;64741;41.730;44.788;2024-03-02T08:09:59;998.1;;;22;39.1
76046;BME280;64741;41.730;44.788;2024-03-02T08:15:03;998;;;22;38.8
76046;BME280;64741;41.730;44.788;2024-03-02T08:20:03;998;;;22;38.6
76046;BME280;64741;41.730;44.788;2024-03-02T08:24:59;998;;;22;38.3
76046;BME280;64741;41.730;44.788;2024-03-02T08:29:51;997.9;;;21.9;38.2
76046;BME280;64741;41.730;44.788;2024-03-02T08:35:03;997.8;;;21.9;38.2
76046;BME280;64741;41.730;44.788;2024-03-02T08:40:01;997.8;;;21.9;37.9
76046;BME280;64741;41.730;44.788;2024-03-02T08:44:51;997.8;;;21.9;37.9
76046;BME280;64741;41.730;44.788;2024-03-02T08:49:51;997.8;;;21.9;38.1
76046;BME280;64741;41.730;44.788;2024-03-02T08:55:01;997.7;;;21.9;38.3
76046;BME280;64741;41.730;44.788;2024-03-02T08:59:43;997.7;;;21.9;38.3
76046;BME280;64741;41.730;44.788;2024-03-02T09:04:59;997.6;;;21.9;38.5
76046;BME280;64741;41.730;44.788;2024-03-02T09:09:55;997.6;;;22;38.8
76046;BME280;64741;41.730;44.788;2024-03-02T09:14:53;997.6;;;22;38.8
76046;BME280;64741;41.730;44.788;2024-03-02T09:19:59;997.5;;;22;38.7
76046;BME280;64741;41.730;44.788;2024-03-02T09:25:01;997.4;;;22;38.6
76046;BME280;64741;41.730;44.788;2024-03-02T09:29:59;997.3;;;22;38.7
76046;BME280;64741;41.730;44.788;2024-03-02T09:34:59;997.2;;;22;38.6
76046;BME280;64741;41.730;44.788;2024-03-02T09:39:51;997.1;;;22;38.7
76046;BME280;64741;41.730;44.788;2024-03-02T09:45:01;997.1;;;22;38.5
76046;BME280;64741;41.730;44.788;2024-03-02T09:49:33;997;;;22;38.7
76046;BME280;64741;41.730;44.788;2024-03-02T09:55:03;997;;;22;38.6
76046;BME280;64741;41.730;44.788;2024-03-02T09:59:59;997;;;22;38.3
76046;BME280;64741;41.730;44.788;2024-03-02T10:05:03;996.9;;;22;38.5
76046;BME280;64741;41.730;44.788;2024-03-02T10:09:59;996.9;;;22;38.8
76046;BME280;64741;41.730;44.788;2024-03-02T10:15:02;996.8;;;22;39.2
76046;BME280;64741;41.730;44.788;2024-03-02T10:20:07;996.7;;;22.1;39.6
76046;BME280;64741;41.730;44.788;2024-03-02T10:24:51;996.7;;;22.1;40.5
76046;BME280;64741;41.730;44.788;2024-03-02T10:30:03;996.7;;;22.1;40.9
76046;BME280;64741;41.730;44.788;2024-03-02T10:35:03;996.7;;;22.2;41.4
76046;BME280;64741;41.730;44.788;2024-03-02T10:40:03;996.6;;;22.2;41.9
76046;BME280;64741;41.730;44.788;2024-03-02T10:44:45;996.5;;;22.3;42.4
76046;BME280;64741;41.730;44.788;2024-03-02T10:50:03;996.5;;;22.3;43.3
76046;BME280;64741;41.730;44.788;2024-03-02T10:54:51;996.4;;;22.3;43
76046;BME280;64741;41.730;44.788;2024-03-02T11:00:03;996.3;;;22.4;42.9
76046;BME280;64741;41.730;44.788;2024-03-02T11:04:51;996.3;;;22.4;42.8
76046;BME280;64741;41.730;44.788;2024-03-02T11:10:01;996.2;;;22.4;42.3
76046;BME280;64741;41.730;44.788;2024-03-02T11:14:51;996.1;;;22.4;42.5
76046;BME280;64741;41.730;44.788;2024-03-02T11:20:01;996;;;22.4;42.5
76046;BME280;64741;41.730;44.788;2024-03-02T11:24:59;996;;;22.4;42.6
76046;BME280;64741;41.730;44.788;2024-03-02T11:30:03;995.9;;;22.4;42.5
76046;BME280;64741;41.730;44.788;2024-03-02T11:34:59;995.9;;;22.4;42.4
76046;BME280;64741;41.730;44.788;2024-03-02T11:40:01;996;;;22.4;42.3
76046;BME280;64741;41.730;44.788;2024-03-02T11:44:57;995.9;;;22.4;42
76046;BME280;64741;41.730;44.788;2024-03-02T11:50:01;995.8;;;22.4;41.9
76046;BME280;64741;41.730;44.788;2024-03-02T11:54:59;995.9;;;22.4;41.8
76046;BME280;64741;41.730;44.788;2024-03-02T11:59:47;995.8;;;22.4;41.7
76046;BME280;64741;41.730;44.788;2024-03-02T12:05:02;995.8;;;22.4;41.6
76046;BME280;64741;41.730;44.788;2024-03-02T12:10:01;995.8;;;22.4;41.6
76046;BME280;64741;41.730;44.788;2024-03-02T12:14:55;995.7;;;22.4;41.7
76046;BME280;64741;41.730;44.788;2024-03-02T12:20:01;995.7;;;22.4;41.5
76046;BME280;64741;41.730;44.788;2024-03-02T12:25:01;995.7;;;22.4;41.7
76046;BME280;64741;41.730;44.788;2024-03-02T12:29:55;995.7;;;22.4;41.6
76046;BME280;64741;41.730;44.788;2024-03-02T12:35:01;995.7;;;22.4;41.4
76046;BME280;64741;41.730;44.788;2024-03-02T12:39:47;995.6;;;22.4;41.3
76046;BME280;64741;41.730;44.788;2024-03-02T12:44:59;995.6;;;22.4;41.2
76046;BME280;64741;41.730;44.788;2024-03-02T12:49:47;995.6;;;22.4;41.2
76046;BME280;64741;41.730;44.788;2024-03-02T12:54:43;995.6;;;22.4;41.1
76046;BME280;64741;41.730;44.788;2024-03-02T12:59:59;995.6;;;22.4;41.1
76046;BME280;64741;41.730;44.788;2024-03-02T13:04:52;995.6;;;22.4;41.1
76046;BME280;64741;41.730;44.788;2024-03-02T13:09:49;995.6;;;22.4;40.9
76046;BME280;64741;41.730;44.788;2024-03-02T13:15:03;995.5;;;22.4;40.8
76046;BME280;64741;41.730;44.788;2024-03-02T13:19:55;995.5;;;22.4;40.7
76046;BME280;64741;41.730;44.788;2024-03-02T13:24:57;995.4;;;22.4;40.6
76046;BME280;64741;41.730;44.788;2024-03-02T13:29:59;995.4;;;22.4;40.4
76046;BME280;64741;41.730;44.788;2024-03-02T13:34:49;995.3;;;22.4;40.4
76046;BME280;64741;41.730;44.788;2024-03-02T13:39:59;995.3;;;22.3;40.3
76046;BME280;64741;41.730;44.788;2024-03-02T13:44:49;995.3;;;22.3;40.2
76046;BME280;64741;41.730;44.788;2024-03-02T13:49:39;995.2;;;22.3;40.1
76046;BME280;64741;41.730;44.788;2024-03-02T13:54:47;995.2;;;22.3;40.1
76046;BME280;64741;41.730;44.788;2024-03-02T13:59:53;995.2;;;22.3;40
76046;BME280;64741;41.730;44.788;2024-03-02T14:04:59;995.1;;;22.3;39.9
76046;BME280;64741;41.730;44.788;2024-03-02T14:10:00;995.1;;;22.2;39.8
76046;BME280;64741;41.730;44.788;2024-03-02T14:14:55;995;;;22.2;39.6
76046;BME280;64741;41.730;44.788;2024-03-02T14:19:59;995;;;22.2;39.9
76046;BME280;64741;41.730;44.788;2024-03-02T14:24:59;995;;;22.3;40.3
76046;BME280;64741;41.730;44.788;2024-03-02T14:29:47;995;;;22.3;40.5
76046;BME280;64741;41.730;44.788;2024-03-02T14:34:59;995;;;22.3;40.7
76046;BME280;64741;41.730;44.788;2024-03-02T14:39:47;995.1;;;22.3;40.7
76046;BME280;64741;41.730;44.788;2024-03-02T14:44:55;995.1;;;22.3;40.8
76046;BME280;64741;41.730;44.788;2024-03-02T14:50:01;995.1;;;22.2;41
76046;BME280;64741;41.730;44.788;2024-03-02T14:55:01;995.1;;;22.2;41.1
76046;BME280;64741;41.730;44.788;2024-03-02T14:59:29;995;;;22.2;41.3
76046;BME280;64741;41.730;44.788;2024-03-02T15:04:47;994.9;;;22.2;41.3
76046;BME280;64741;41.730;44.788;2024-03-02T15:10:01;995;;;22.2;41.3
76046;BME280;64741;41.730;44.788;2024-03-02T15:14:53;995;;;22.2;41.3
76046;BME280;64741;41.730;44.788;2024-03-02T15:19:47;995;;;22.2;41.3
76046;BME280;64741;41.730;44.788;2024-03-02T15:24:47;995;;;22.1;41.2
76046;BME280;64741;41.730;44.788;2024-03-02T15:29:59;995;;;22.1;41
76046;BME280;64741;41.730;44.788;2024-03-02T15:35:01;995;;;22.1;40.9
76046;BME280;64741;41.730;44.788;2024-03-02T15:39:55;995;;;22.1;41
76046;BME280;64741;41.730;44.788;2024-03-02T15:45:01;995;;;22.1;41
76046;BME280;64741;41.730;44.788;2024-03-02T15:49:55;995;;;22.1;40.9
76046;BME280;64741;41.730;44.788;2024-03-02T15:54:59;995;;;22.1;40.9
76046;BME280;64741;41.730;44.788;2024-03-02T15:59:59;995.1;;;22.1;41
76046;BME280;64741;41.730;44.788;2024-03-02T16:04:47;995.1;;;22.1;41.3
76046;BME280;64741;41.730;44.788;2024-03-02T16:09:57;995.2;;;22.1;41.9
76046;BME280;64741;41.730;44.788;2024-03-02T16:14:47;995.2;;;22.1;42.6
76046;BME280;64741;41.730;44.788;2024-03-02T16:19:37;995.2;;;22.1;43.2
76046;BME280;64741;41.730;44.788;2024-03-02T16:25:01;995.2;;;22.1;43.4
76046;BME280;64741;41.730;44.788;2024-03-02T16:30:01;995.2;;;22.1;43
76046;BME280;64741;41.730;44.788;2024-03-02T16:34:35;995.2;;;22.1;42.8
76046;BME280;64741;41.730;44.788;2024-03-02T16:39:47;995.1;;;22.1;42.5
76046;BME280;64741;41.730;44.788;2024-03-02T16:45:01;995.1;;;22.1;42.3
76046;BME280;64741;41.730;44.788;2024-03-02T16:49:59;995.1;;;22.1;42.2
76046;BME280;64741;41.730;44.788;2024-03-02T16:54:47;995.1;;;22;41.9
76046;BME280;64741;41.730;44.788;2024-03-02T16:59:41;995.2;;;22;41.8
76046;BME280;64741;41.730;44.788;2024-03-02T17:04:59;995.2;;;22;41.6
76046;BME280;64741;41.730;44.788;2024-03-02T17:10:01;995.2;;;22;41.4
76046;BME280;64741;41.730;44.788;2024-03-02T17:14:57;995.2;;;22;41.4
76046;BME280;64741;41.730;44.788;2024-03-02T17:20:04;995.2;;;22;41.2
76046;BME280;64741;41.730;44.788;2024-03-02T17:24:57;995.2;;;22;41.1
76046;BME280;64741;41.730;44.788;2024-03-02T17:29:57;995.2;;;22;41.1
76046;BME280;64741;41.730;44.788;2024-03-02T17:34:59;995.1;;;21.9;41
76046;BME280;64741;41.730;44.788;2024-03-02T17:39:57;995.1;;;21.9;40.9
76046;BME280;64741;41.730;44.788;2024-03-02T17:44:57;995.1;;;21.9;40.8
76046;BME280;64741;41.730;44.788;2024-03-02T17:49:45;995.1;;;21.9;40.8
76046;BME280;64741;41.730;44.788;2024-03-02T17:55:03;995.1;;;21.9;40.6
76046;BME280;64741;41.730;44.788;2024-03-02T18:00:01;995.1;;;21.9;40.6
76046;BME280;64741;41.730;44.788;2024-03-02T18:05:03;995.1;;;21.9;40.6
76046;BME280;64741;41.730;44.788;2024-03-02T18:10:01;995.1;;;21.9;40.6
76046;BME280;64741;41.730;44.788;2024-03-02T18:15:04;995.1;;;21.9;40.4
76046;BME280;64741;41.730;44.788;2024-03-02T18:20:01;995.1;;;21.9;40.4
76046;BME280;64741;41.730;44.788;2024-03-02T18:25:03;995.1;;;21.9;40.3
76046;BME280;64741;41.730;44.788;2024-03-02T18:30:04;995.1;;;22;40.3
76046;BME280;64741;41.730;44.788;2024-03-02T18:34:51;995.1;;;22;40.3
76046;BME280;64741;41.730;44.788;2024-03-02T18:40:03;995.2;;;22;40.3
76046;BME280;64741;41.730;44.788;2024-03-02T18:45:04;995.2;;;22;40.2
76046;BME280;64741;41.730;44.788;2024-03-02T18:49:59;995.2;;;22;40.2
76046;BME280;64741;41.730;44.788;2024-03-02T18:55:03;995.3;;;22.1;40.1
76046;BME280;64741;41.730;44.788;2024-03-02T18:59:43;995.3;;;22.1;40.1
76046;BME280;64741;41.730;44.788;2024-03-02T19:04:59;995.3;;;22.1;40
76046;BME280;64741;41.730;44.788;2024-03-02T19:10:03;995.4;;;22.2;39.8
76046;BME280;64741;41.730;44.788;2024-03-02T19:14:53;995.4;;;22.2;39.8
76046;BME280;64741;41.730;44.788;2024-03-02T19:20:05;995.4;;;22.1;39.6
76046;BME280;64741;41.730;44.788;2024-03-02T19:24:53;995.4;;;22.1;39.6
76046;BME280;64741;41.730;44.788;2024-03-02T19:29:53;995.4;;;22.1;39.5
76046;BME280;64741;41.730;44.788;2024-03-02T19:35:05;995.4;;;22;39.3
76046;BME280;64741;41.730;44.788;2024-03-02T19:39:55;995.4;;;22;39.3
76046;BME280;64741;41.730;44.788;2024-03-02T19:44:55;995.3;;;22;39.4
76046;BME280;64741;41.730;44.788;2024-03-02T19:50:05;995.3;;;22;39.6
76046;BME280;64741;41.730;44.788;2024-03-02T19:55:01;995.3;;;22;39.6
76046;BME280;64741;41.730;44.788;2024-03-02T20:00:01;995.3;;;22;39.6
76046;BME280;64741;41.730;44.788;2024-03-02T20:05:05;995.3;;;22;39.7
76046;BME280;64741;41.730;44.788;2024-03-02T20:09:56;995.3;;;22;39.7
76046;BME280;64741;41.730;44.788;2024-03-02T20:15:05;995.3;;;22;39.8
76046;BME280;64741;41.730;44.788;2024-03-02T20:19:48;995.3;;;22;39.8
76046;BME280;64741;41.730;44.788;2024-03-02T20:25:05;995.3;;;22;39.7
76046;BME280;64741;41.730;44.788;2024-03-02T20:30:01;995.3;;;22;39.7
76046;BME280;64741;41.730;44.788;2024-03-02T20:35:05;995.4;;;22;39.6
76046;BME280;64741;41.730;44.788;2024-03-02T20:40:07;995.4;;;22;39.6
76046;BME280;64741;41.730;44.788;2024-03-02T20:45:05;995.4;;;22;39.6
76046;BME280;64741;41.730;44.788;2024-03-02T20:49:43;995.4;;;22;39.6
76046;BME280;64741;41.730;44.788;2024-03-02T20:55:06;995.4;;;22;39.5
76046;BME280;64741;41.730;44.788;2024-03-02T21:00:05;995.4;;;22;39.3
76046;BME280;64741;41.730;44.788;2024-03-02T21:04:55;995.4;;;22;39.3
76046;BME280;64741;41.730;44.788;2024-03-02T21:10:06;995.4;;;22;39.2
76046;BME280;64741;41.730;44.788;2024-03-02T21:14:55;995.4;;;22;39.2
76046;BME280;64741;41.730;44.788;2024-03-02T21:20:01;995.3;;;22;39.2
76046;BME280;64741;41.730;44.788;2024-03-02T21:25:05;995.3;;;22;39.4
76046;BME280;64741;41.730;44.788;2024-03-02T21:30:06;995.3;;;22;39.4
76046;BME280;64741;41.730;44.788;2024-03-02T21:35:01;995.3;;;22;39.4
76046;BME280;64741;41.730;44.788;2024-03-02T21:39:55;995.3;;;22;39.4
76046;BME280;64741;41.730;44.788;2024-03-02T21:44:45;995.3;;;22;39.5
76046;BME280;64741;41.730;44.788;2024-03-02T21:50:05;995.2;;;22;39.5
76046;BME280;64741;41.730;44.788;2024-03-02T21:54:55;995.2;;;22;39.5
76046;BME280;64741;41.730;44.788;2024-03-02T21:59:55;995.2;;;21.9;39.4
76046;BME280;64741;41.730;44.788;2024-03-02T22:05:05;995.2;;;22;39.3
76046;BME280;64741;41.730;44.788;2024-03-02T22:10:05;995.3;;;22;39.3
76046;BME280;64741;41.730;44.788;2024-03-02T22:15:01;995.3;;;22;39.3
76046;BME280;64741;41.730;44.788;2024-03-02T22:19:47;995.3;;;22;39.3
76046;BME280;64741;41.730;44.788;2024-03-02T22:24:43;995.2;;;22;39.4
76046;BME280;64741;41.730;44.788;2024-03-02T22:30:01;995.2;;;21.9;39.3
76046;BME280;64741;41.730;44.788;2024-03-02T22:35:05;995.1;;;21.9;39.6
76046;BME280;64741;41.730;44.788;2024-03-02T22:40:01;995.1;;;21.9;39.6
76046;BME280;64741;41.730;44.788;2024-03-02T22:45:01;995.1;;;21.9;39.7
76046;BME280;64741;41.730;44.788;2024-03-02T22:49:55;995.1;;;21.9;39.9
76046;BME280;64741;41.730;44.788;2024-03-02T22:55:05;995;;;21.9;39.4
76046;BME280;64741;41.730;44.788;2024-03-02T23:00:01;995;;;21.9;39.4
76046;BME280;64741;41.730;44.788;2024-03-02T23:05:03;995;;;21.9;39.5
76046;BME280;64741;41.730;44.788;2024-03-02T23:09:59;995;;;21.9;39.5
76046;BME280;64741;41.730;44.788;2024-03-02T23:15:04;994.9;;;21.9;39.4
76046;BME280;64741;41.730;44.788;2024-03-02T23:19:59;994.9;;;21.9;39.4
76046;BME280;64741;41.730;44.788;2024-03-02T23:25:05;994.8;;;21.8;39.3
76046;BME280;64741;41.730;44.788;2024-03-02T23:30:08;994.8;;;21.8;39.3
76046;BME280;64741;41.730;44.788;2024-03-02T23:34:53;994.8;;;21.8;39.3
76046;BME280;64741;41.730;44.788;2024-03-02T23:40:04;994.7;;;21.8;39.3
76046;BME280;64741;41.730;44.788;2024-03-02T23:45:03;994.6;;;21.8;39.3
76046;BME280;64741;41.730;44.788;2024-03-02T23:49:59;994.6;;;21.8;39.3
76046;BME280;64741;41.730;44.788;2024-03-02T23:55:03;994.5;;;21.8;39.1
